Time;durP1;ratioP1;P1;durP2;ratioP2;P2;SDS_P1;SDS_P2;PMS_P1;PMS_P2;Temp;Humidity;BMP_temperature;BMP_pressure;BME280_temperature;BME280_humidity;BME280_pressure;Samples;Min_cycle;Max_cycle;Signal;HPM_P1;HPM_P2
2022/04/07 00:00:15;;;;;;;26.65;12.00;;;;;;;6.50;100.00;93372.06;5040164;28;20025;-94
2022/04/07 00:02:41;;;;;;;19.50;11.18;;;;;;;6.59;100.00;93362.66;5041129;28;20052;-95
2022/04/07 00:05:07;;;;;;;17.50;11.20;;;;;;;6.70;100.00;93362.63;5040289;28;20394;-94
2022/04/07 00:07:32;;;;;;;20.67;10.95;;;;;;;6.70;100.00;93365.22;5040161;28;20029;-93
2022/04/07 00:10:01;;;;;;;19.13;11.43;;;;;;;6.75;100.00;93358.19;5039866;28;20032;-93
2022/04/07 00:12:29;;;;;;;17.73;11.10;;;;;;;6.70;100.00;93357.41;5040155;28;20029;-94
2022/04/07 00:14:54;;;;;;;21.73;11.30;;;;;;;6.62;100.00;93364.75;5040049;28;20434;-95
2022/04/07 00:17:23;;;;;;;17.15;10.73;;;;;;;6.73;100.00;93356.88;5039892;28;20068;-95
2022/04/07 00:19:49;;;;;;;21.88;10.70;;;;;;;6.93;100.00;93356.78;5039958;28;20029;-93
2022/04/07 00:22:15;;;;;;;18.05;10.93;;;;;;;6.96;100.00;93341.66;5039751;28;20033;-95
2022/04/07 00:24:42;;;;;;;15.10;10.18;;;;;;;6.98;100.00;93339.56;5039494;28;20127;-95
2022/04/07 00:27:07;;;;;;;16.67;10.20;;;;;;;7.05;100.00;93343.44;5039901;28;20039;-96
2022/04/07 00:29:33;;;;;;;22.15;10.65;;;;;;;7.07;100.00;93346.53;5040016;28;20032;-95
2022/04/07 00:32:03;;;;;;;22.63;10.48;;;;;;;7.10;100.00;93345.25;5043577;28;20128;-95
2022/04/07 00:34:31;;;;;;;20.60;10.70;;;;;;;7.03;100.00;93335.13;5043976;28;20031;-94
2022/04/07 00:36:57;;;;;;;22.38;10.40;;;;;;;7.12;100.00;93332.72;5043765;28;20426;-94
2022/04/07 00:39:23;;;;;;;16.02;9.38;;;;;;;7.20;100.00;93332.16;5043469;28;20064;-96
2022/04/07 00:41:51;;;;;;;15.93;9.30;;;;;;;7.21;100.00;93328.50;5043460;28;20028;-94
2022/04/07 00:44:18;;;;;;;15.15;9.20;;;;;;;7.25;100.00;93331.34;5043539;28;20083;-94
2022/04/07 00:46:43;;;;;;;14.35;8.45;;;;;;;7.27;100.00;93328.44;5043268;28;20052;-95
2022/04/07 00:49:10;;;;;;;22.33;9.13;;;;;;;7.25;100.00;93327.94;5043646;28;20033;-95
2022/04/07 00:51:38;;;;;;;17.42;9.93;;;;;;;7.27;100.00;93333.66;5043511;28;20369;-93
2022/04/07 00:54:04;;;;;;;15.65;9.30;;;;;;;7.06;100.00;93326.75;5043192;28;20031;-93
2022/04/07 00:56:30;;;;;;;14.10;8.48;;;;;;;7.34;100.00;93315.91;5043312;28;20086;-94
2022/04/07 00:58:56;;;;;;;14.50;8.18;;;;;;;7.40;100.00;93314.81;5043020;28;20571;-93
2022/04/07 01:01:23;;;;;;;15.57;8.15;;;;;;;7.62;100.00;93303.19;5043093;28;20029;-96
2022/04/07 01:03:51;;;;;;;12.90;7.50;;;;;;;7.62;100.00;93308.38;5042954;28;20033;-94
2022/04/07 01:06:19;;;;;;;16.40;7.70;;;;;;;7.44;100.00;93307.22;5043165;28;20040;-95
2022/04/07 01:08:44;;;;;;;15.90;7.63;;;;;;;7.50;100.00;93301.69;5043177;28;20032;-96
2022/04/07 01:11:10;;;;;;;14.57;7.70;;;;;;;7.37;100.00;93312.75;5042875;28;20024;-96
2022/04/07 01:13:52;;;;;;;14.38;6.72;;;;;;;7.32;100.00;93312.81;5043001;28;20044;-95
2022/04/07 01:16:19;;;;;;;14.82;8.18;;;;;;;7.37;100.00;93312.75;5043273;28;20035;-96
2022/04/07 01:18:46;;;;;;;19.08;8.32;;;;;;;7.30;100.00;93312.28;5059523;28;20036;-94
2022/04/07 01:21:14;;;;;;;20.88;9.73;;;;;;;7.20;100.00;93308.72;5042842;28;20029;-95
2022/04/07 01:23:44;;;;;;;15.70;9.57;;;;;;;7.28;100.00;93309.16;5042991;28;20430;-95
2022/04/07 01:26:10;;;;;;;22.13;9.65;;;;;;;7.01;100.00;93311.16;5042551;28;20037;-94
2022/04/07 01:28:36;;;;;;;20.20;9.90;;;;;;;6.68;100.00;93308.25;5042813;28;20430;-95
2022/04/07 01:31:02;;;;;;;16.30;9.40;;;;;;;6.30;100.00;93293.03;5059066;28;20032;-96
2022/04/07 01:33:29;;;;;;;21.80;10.23;;;;;;;6.44;100.00;93295.84;5042481;28;20039;-94
2022/04/07 01:35:54;;;;;;;16.50;9.25;;;;;;;6.20;100.00;93288.66;5042643;28;20055;-93
2022/04/07 01:38:20;;;;;;;18.77;9.95;;;;;;;6.11;100.00;93295.47;5042553;28;20613;-95
2022/04/07 01:40:46;;;;;;;16.25;10.05;;;;;;;5.92;100.00;93284.81;5058930;28;20444;-95
2022/04/07 01:43:12;;;;;;;16.75;9.82;;;;;;;5.99;100.00;93282.72;5041477;28;20067;-94
2022/04/07 01:45:38;;;;;;;17.48;9.77;;;;;;;5.87;100.00;93279.63;5042882;28;20029;-94
2022/04/07 01:48:04;;;;;;;19.10;10.35;;;;;;;5.98;100.00;93275.97;5042527;28;20033;-96
2022/04/07 01:50:30;;;;;;;14.55;8.32;;;;;;;5.91;100.00;93278.06;5042165;28;20116;-94
2022/04/07 01:52:57;;;;;;;22.15;9.98;;;;;;;6.00;100.00;93266.06;5041961;28;20466;-95
2022/04/07 01:55:26;;;;;;;21.73;10.18;;;;;;;5.87;100.00;93275.22;5042312;28;20119;-95
2022/04/07 01:57:51;;;;;;;21.92;10.52;;;;;;;5.79;100.00;93260.94;5042322;28;20108;-94
2022/04/07 02:00:17;;;;;;;21.75;10.45;;;;;;;5.87;100.00;93264.81;5041965;28;20460;-94
2022/04/07 02:02:45;;;;;;;19.75;10.00;;;;;;;5.72;100.00;93276.00;5041862;28;20028;-95
2022/04/07 02:05:11;;;;;;;18.73;10.40;;;;;;;5.63;100.00;93269.81;5042179;28;20044;-95
2022/04/07 02:07:40;;;;;;;21.98;10.27;;;;;;;5.58;100.00;93272.41;5042158;28;20052;-94
2022/04/07 02:10:07;;;;;;;17.58;9.95;;;;;;;5.90;100.00;93279.13;5041790;28;20346;-95
2022/04/07 02:12:37;;;;;;;21.08;10.88;;;;;;;5.55;100.00;93273.72;5041931;28;20025;-95
2022/04/07 02:15:04;;;;;;;22.40;12.00;;;;;;;5.58;100.00;93273.19;5042503;28;20452;-94
2022/04/07 02:17:30;;;;;;;29.77;12.55;;;;;;;5.54;100.00;93272.16;5041566;28;20335;-94
2022/04/07 02:20:00;;;;;;;27.80;11.68;;;;;;;5.47;100.00;93279.44;5041552;28;20101;-94
2022/04/07 02:22:28;;;;;;;24.75;12.98;;;;;;;5.48;100.00;93279.19;5041720;28;20037;-93
2022/04/07 02:24:58;;;;;;;24.15;12.05;;;;;;;5.69;100.00;93280.97;5041898;28;20041;-94
2022/04/07 02:27:25;;;;;;;30.10;13.68;;;;;;;5.53;100.00;93281.00;5042068;28;20448;-95
2022/04/07 02:29:51;;;;;;;26.80;15.43;;;;;;;5.97;100.00;93276.25;5057831;28;20029;-94
2022/04/07 02:32:20;;;;;;;31.40;16.38;;;;;;;6.31;100.00;93267.81;5041330;28;20123;-94
2022/04/07 02:34:45;;;;;;;24.85;13.70;;;;;;;5.92;100.00;93270.00;5041698;28;20033;-94
2022/04/07 02:37:11;;;;;;;27.45;15.63;;;;;;;5.75;100.00;93261.72;5041353;28;20039;-95
2022/04/07 02:39:36;;;;;;;33.65;16.23;;;;;;;5.67;100.00;93260.44;5041071;28;20032;-95
2022/04/07 02:42:02;;;;;;;31.27;15.63;;;;;;;5.56;100.00;93259.69;5041456;28;20131;-95
2022/04/07 02:44:28;;;;;;;30.08;15.75;;;;;;;5.52;100.00;93251.63;5041019;28;20033;-93
2022/04/07 02:46:53;;;;;;;24.73;14.00;;;;;;;5.21;100.00;93253.47;5057759;28;20032;-93
2022/04/07 02:49:19;;;;;;;27.98;14.27;;;;;;;5.24;100.00;93252.97;5041160;28;20029;-93
2022/04/07 02:51:45;;;;;;;27.73;14.55;;;;;;;5.21;100.00;93246.47;5041587;28;20021;-94
2022/04/07 02:57:32;;;;;;;27.42;14.30;;;;;;;5.00;100.00;93258.69;5058479;28;20036;-94
2022/04/07 03:00:04;;;;;;;27.60;14.93;;;;;;;4.98;100.00;93252.19;5041090;28;20393;-94
2022/04/07 03:02:30;;;;;;;26.40;14.82;;;;;;;4.95;100.00;93251.66;5041021;28;20082;-94
2022/04/07 03:04:56;;;;;;;28.15;14.50;;;;;;;5.02;100.00;93255.81;5041157;28;20036;-94
2022/04/07 03:07:21;;;;;;;32.70;17.35;;;;;;;5.08;100.00;93250.34;5040815;28;20029;-95
2022/04/07 03:09:47;;;;;;;35.65;17.75;;;;;;;5.35;100.00;93261.53;5040759;28;20063;-93
2022/04/07 03:12:15;;;;;;;35.85;18.35;;;;;;;5.28;100.00;93254.00;5040736;28;20029;-94
2022/04/07 03:14:41;;;;;;;33.15;17.55;;;;;;;5.39;100.00;93257.38;5041144;28;20485;-95
2022/04/07 03:17:16;;;;;;;31.77;18.83;;;;;;;5.64;100.00;93255.78;5057200;28;20032;-95
2022/04/07 03:19:42;;;;;;;32.38;16.90;;;;;;;5.62;100.00;93257.88;5041649;28;20422;-95
2022/04/07 03:22:08;;;;;;;33.10;18.17;;;;;;;5.62;100.00;93260.47;5040773;28;20028;-94
2022/04/07 03:24:36;;;;;;;30.73;17.27;;;;;;;5.63;100.00;93260.19;5040421;28;20167;-95
2022/04/07 03:27:04;;;;;;;35.38;17.75;;;;;;;5.75;100.00;93262.50;5040741;28;20029;-94
2022/04/07 03:29:30;;;;;;;33.92;16.35;;;;;;;5.80;100.00;93269.50;5040924;28;20025;-94
2022/04/07 03:31:56;;;;;;;30.98;17.23;;;;;;;5.85;100.00;93266.13;5040862;28;20075;-93
2022/04/07 03:34:22;;;;;;;35.15;18.00;;;;;;;5.78;100.00;93261.97;5040711;28;20163;-95
2022/04/07 03:36:47;;;;;;;31.42;16.13;;;;;;;5.84;100.00;93262.75;5040401;28;20036;-94
2022/04/07 03:39:13;;;;;;;34.45;17.55;;;;;;;5.72;100.00;93259.66;5040445;28;20086;-96
2022/04/07 03:41:39;;;;;;;36.05;18.20;;;;;;;5.73;100.00;93264.56;5040266;28;20028;-93
2022/04/07 03:44:07;;;;;;;34.28;17.40;;;;;;;5.65;100.00;93260.69;5040656;28;20032;-94
2022/04/07 03:46:35;;;;;;;33.05;17.27;;;;;;;5.34;100.00;93263.34;5040641;28;20025;-96
2022/04/07 03:49:01;;;;;;;34.92;17.92;;;;;;;5.12;100.00;93268.81;5040197;28;20029;-94
2022/04/07 03:51:26;;;;;;;30.77;17.65;;;;;;;5.01;100.00;93267.22;5040306;28;20067;-94
2022/04/07 03:53:52;;;;;;;35.28;18.02;;;;;;;5.06;100.00;93273.22;5040274;28;20032;-95
2022/04/07 03:56:18;;;;;;;38.65;18.25;;;;;;;4.93;100.00;93263.34;5040557;28;20119;-96
2022/04/07 03:58:43;;;;;;;39.35;19.25;;;;;;;5.00;100.00;93279.44;5039987;28;20346;-94
2022/04/07 04:01:09;;;;;;;34.72;19.02;;;;;;;4.91;100.00;93278.38;5039845;28;20021;-94
2022/04/07 04:03:37;;;;;;;37.67;20.13;;;;;;;5.25;100.00;93270.13;5040262;28;20033;-94
2022/04/07 04:06:03;;;;;;;42.00;21.13;;;;;;;5.25;100.00;93270.13;5039947;28;20032;-93
2022/04/07 04:08:28;;;;;;;35.22;18.70;;;;;;;5.11;100.00;93275.03;5039826;28;20025;-93
2022/04/07 04:10:54;;;;;;;38.42;18.70;;;;;;;5.12;100.00;93266.19;5039732;28;20036;-93
2022/04/07 04:13:19;;;;;;;41.47;18.63;;;;;;;5.25;100.00;93264.91;5039899;28;20162;-93
2022/04/07 04:15:45;;;;;;;32.85;18.55;;;;;;;5.23;100.00;93270.38;5039674;28;20035;-93
2022/04/07 04:18:11;;;;;;;41.63;20.08;;;;;;;5.33;100.00;93268.81;5039810;28;20469;-94
2022/04/07 04:20:38;;;;;;;33.72;18.38;;;;;;;5.51;100.00;93265.66;5039728;28;20060;-95
2022/04/07 04:23:07;;;;;;;40.30;20.17;;;;;;;5.55;100.00;93271.13;5040087;28;20021;-93
2022/04/07 04:25:32;;;;;;;41.00;20.15;;;;;;;5.76;100.00;93282.25;5039562;28;20136;-92
2022/04/07 04:27:58;;;;;;;39.38;20.05;;;;;;;5.80;100.00;93277.28;5039184;28;20052;-92
2022/04/07 04:30:25;;;;;;;38.85;20.05;;;;;;;5.70;100.00;93279.94;5039609;28;20067;-92
2022/04/07 04:32:51;;;;;;;41.53;20.95;;;;;;;5.80;100.00;93277.28;5039764;28;20029;-93
2022/04/07 04:35:16;;;;;;;35.15;19.73;;;;;;;5.99;100.00;93282.72;5039247;28;20040;-92
2022/04/07 04:37:42;;;;;;;36.60;19.67;;;;;;;5.94;100.00;93290.53;5055575;28;20029;-93
2022/04/07 04:40:08;;;;;;;37.35;20.48;;;;;;;6.02;100.00;93286.66;5039174;28;20465;-93
2022/04/07 04:42:34;;;;;;;35.78;19.55;;;;;;;5.94;100.00;93285.34;5055441;28;20098;-92
2022/04/07 04:45:04;;;;;;;39.80;20.15;;;;;;;5.90;100.00;93287.69;5039113;28;20041;-93
2022/04/07 04:47:30;;;;;;;42.15;20.00;;;;;;;5.85;100.00;93294.72;5039409;28;20025;-93
2022/04/07 04:49:56;;;;;;;36.15;19.40;;;;;;;5.79;100.00;93291.34;5038844;28;20021;-93
2022/04/07 04:52:21;;;;;;;36.45;19.33;;;;;;;5.63;100.00;93291.38;5038958;28;20017;-93
2022/04/07 04:54:47;;;;;;;33.72;18.00;;;;;;;5.56;100.00;93301.25;5039565;28;20091;-92
2022/04/07 04:57:12;;;;;;;27.73;16.17;;;;;;;5.70;100.00;93296.28;5039150;28;20025;-92
2022/04/07 04:59:37;;;;;;;31.98;16.60;;;;;;;5.78;100.00;93297.56;5039308;28;20339;-92
2022/04/07 05:02:04;;;;;;;30.90;15.55;;;;;;;5.90;100.00;93302.50;5032278;28;20144;-93
2022/04/07 05:07:54;;;;;;;26.30;14.63;;;;;;;5.76;100.00;93297.84;5056446;28;20036;-93
2022/04/07 05:10:19;;;;;;;26.27;13.70;;;;;;;5.82;100.00;93300.44;5022650;28;20115;-93
2022/04/07 05:12:45;;;;;;;30.00;14.27;;;;;;;5.77;100.00;93307.22;5038705;28;20049;-92
2022/04/07 05:15:11;;;;;;;33.47;14.70;;;;;;;5.76;100.00;93292.66;5022721;28;20087;-92
2022/04/07 05:17:36;;;;;;;32.42;14.77;;;;;;;5.90;100.00;93318.88;5024146;28;20326;-92
2022/04/07 05:20:08;;;;;;;25.10;14.02;;;;;;;6.08;100.00;93325.38;5026051;28;20029;-92
2022/04/07 05:22:33;;;;;;;24.42;13.57;;;;;;;6.24;100.00;93322.72;5026058;28;20029;-93
2022/04/07 05:24:59;;;;;;;26.42;13.18;;;;;;;6.43;100.00;93329.94;5025603;28;20094;-93
2022/04/07 05:27:28;;;;;;;25.17;12.52;;;;;;;6.48;100.00;93330.69;5025770;28;20338;-93
2022/04/07 05:29:54;;;;;;;29.88;14.68;;;;;;;6.59;100.00;93323.63;5025717;28;20103;-93
2022/04/07 05:32:19;;;;;;;26.80;13.77;;;;;;;6.68;100.00;93331.66;5025699;28;20025;-92
2022/04/07 05:34:47;;;;;;;27.13;14.10;;;;;;;6.82;100.00;93329.25;5025504;28;20435;-91
2022/04/07 05:37:13;;;;;;;31.83;16.10;;;;;;;6.85;100.00;93335.75;5041756;28;20033;-93
2022/04/07 05:39:38;;;;;;;28.80;14.65;;;;;;;7.01;100.00;93346.84;5025790;28;20033;-93
2022/04/07 05:42:06;;;;;;;26.92;14.93;;;;;;;7.10;100.00;93342.63;5025359;28;20078;-91
2022/04/07 05:44:32;;;;;;;25.98;14.23;;;;;;;7.14;100.00;93345.47;5041839;28;20081;-93
2022/04/07 05:46:57;;;;;;;30.40;15.27;;;;;;;7.32;100.00;93359.69;5041139;28;20033;-92
2022/04/07 05:49:23;;;;;;;36.00;16.38;;;;;;;7.34;100.00;93349.78;5041690;28;20029;-91
2022/04/07 05:51:53;;;;;;;32.58;16.23;;;;;;;7.35;100.00;93348.72;5025080;28;20158;-93
2022/04/07 05:54:20;;;;;;;33.22;15.98;;;;;;;7.49;100.00;93347.06;5042302;28;20423;-92
2022/04/07 05:56:46;;;;;;;23.73;12.13;;;;;;;7.44;100.00;93354.13;5041914;28;20106;-92
2022/04/07 05:59:11;;;;;;;31.00;16.17;;;;;;;7.46;100.00;93344.22;5024896;28;20449;-92
2022/04/07 06:01:37;;;;;;;28.30;14.07;;;;;;;6.94;100.00;93357.56;5041232;28;20048;-91
2022/04/07 06:04:02;;;;;;;26.38;15.80;;;;;;;6.99;100.00;93348.94;5041091;28;20032;-92
2022/04/07 06:06:28;;;;;;;23.75;13.75;;;;;;;7.24;100.00;93350.59;5024587;28;20124;-90
2022/04/07 06:08:56;;;;;;;24.55;13.73;;;;;;;7.24;100.00;93357.66;5041151;28;20459;-91
2022/04/07 06:11:21;;;;;;;23.30;13.93;;;;;;;7.10;100.00;93360.88;5024896;28;20028;-91
2022/04/07 06:13:47;;;;;;;25.27;13.25;;;;;;;7.37;100.00;93359.66;5024853;28;20021;-92
2022/04/07 06:16:12;;;;;;;22.67;13.50;;;;;;;7.23;100.00;93362.06;5041218;28;20119;-91
2022/04/07 06:18:38;;;;;;;26.90;13.35;;;;;;;7.20;100.00;93366.03;5024978;28;20021;-92
2022/04/07 06:21:03;;;;;;;21.35;12.57;;;;;;;7.32;100.00;93362.31;5024325;28;20119;-91
2022/04/07 06:23:31;;;;;;;25.25;13.23;;;;;;;7.48;100.00;93361.16;5024363;28;20037;-91
2022/04/07 06:25:57;;;;;;;22.48;12.98;;;;;;;7.54;100.00;93364.50;5041092;28;20025;-92
2022/04/07 06:28:22;;;;;;;23.15;13.00;;;;;;;7.55;100.00;93375.69;5023985;28;20354;-91
2022/04/07 06:30:54;;;;;;;24.00;13.07;;;;;;;7.49;100.00;93367.91;5024537;28;20143;-91
2022/04/07 06:33:21;;;;;;;25.73;11.27;;;;;;;7.67;100.00;93363.09;5040603;28;20028;-91
2022/04/07 06:35:48;;;;;;;19.17;10.65;;;;;;;7.70;100.00;93366.97;5024095;28;20086;-91
2022/04/07 06:38:14;;;;;;;15.15;9.02;;;;;;;7.76;100.00;93365.88;5024094;28;20029;-91
2022/04/07 06:40:39;;;;;;;19.52;9.85;;;;;;;7.69;100.00;93366.19;5023962;28;20048;-90
2022/04/07 06:43:05;;;;;;;17.63;9.70;;;;;;;7.69;100.00;93368.81;5040428;28;20025;-90
2022/04/07 06:45:30;;;;;;;16.83;9.02;;;;;;;7.92;100.00;93372.50;5024025;28;20096;-92
2022/04/07 06:47:56;;;;;;;19.05;10.30;;;;;;;8.08;100.00;93377.59;5024091;28;20082;-92
2022/04/07 06:50:23;;;;;;;19.65;9.13;;;;;;;8.05;100.00;93378.16;5024088;28;20039;-92
2022/04/07 06:52:49;;;;;;;16.33;9.02;;;;;;;8.25;100.00;93371.97;5024108;28;20027;-92
2022/04/07 06:55:16;;;;;;;15.05;8.90;;;;;;;8.43;100.00;93364.47;5023958;28;20029;-91
2022/04/07 06:58:04;;;;;;;18.40;9.70;;;;;;;8.33;100.00;93365.34;5040440;28;20043;-92
2022/04/07 07:00:35;;;;;;;20.45;9.38;;;;;;;8.33;100.00;93368.75;5023770;28;20434;-91
2022/04/07 07:03:03;;;;;;;20.38;8.73;;;;;;;8.39;100.00;93355.63;5023487;28;20052;-91
2022/04/07 07:05:30;;;;;;;17.27;9.25;;;;;;;8.63;100.00;93361.66;5023643;28;20068;-91
2022/04/07 07:07:59;;;;;;;16.85;9.77;;;;;;;8.68;100.00;93353.00;5023351;28;20033;-92
2022/04/07 07:10:28;;;;;;;22.95;10.02;;;;;;;8.49;100.00;93347.69;5040584;28;20033;-92
2022/04/07 07:12:54;;;;;;;20.92;10.15;;;;;;;8.77;100.00;93351.31;5023682;28;20025;-92
2022/04/07 07:15:23;;;;;;;21.67;10.18;;;;;;;8.94;100.00;93352.66;5039892;28;20029;-92
2022/04/07 07:17:48;;;;;;;17.92;10.95;;;;;;;8.99;100.00;93351.81;5040067;28;20033;-91
2022/04/07 07:20:14;;;;;;;19.08;11.02;;;;;;;8.91;100.00;93355.84;5023340;28;20119;-92
2022/04/07 07:22:40;;;;;;;21.70;11.38;;;;;;;9.10;100.00;93358.47;5023394;28;20091;-92
2022/04/07 07:25:06;;;;;;;19.25;9.82;;;;;;;9.28;100.00;93356.13;5039708;28;20037;-92
2022/04/07 07:27:39;;;;;;;16.70;10.52;;;;;;;9.29;100.00;93361.09;5022991;28;20040;-92
2022/04/07 07:30:09;;;;;;;17.38;9.02;;;;;;;9.40;100.00;93356.47;5039424;28;20032;-92
2022/04/07 07:32:36;;;;;;;17.92;9.63;;;;;;;9.52;100.00;93358.66;5039580;28;20028;-92
2022/04/07 07:35:02;;;;;;;16.27;9.00;;;;;;;9.70;100.00;93358.94;5023440;28;20123;-92
2022/04/07 07:37:28;;;;;;;20.08;9.82;;;;;;;9.69;100.00;93363.38;5023175;28;20390;-92
2022/04/07 07:39:53;;;;;;;15.80;9.05;;;;;;;9.97;100.00;93360.81;5022675;28;20109;-92
2022/04/07 07:42:19;;;;;;;21.30;8.63;;;;;;;10.04;100.00;93357.84;5039251;28;20032;-92
2022/04/07 07:44:44;;;;;;;16.65;9.20;;;;;;;10.21;100.00;93359.13;5023288;28;20477;-91
2022/04/07 07:47:09;;;;;;;19.40;9.57;;;;;;;10.46;100.00;93360.50;5039172;28;20346;-91
2022/04/07 07:49:35;;;;;;;16.50;9.50;;;;;;;10.30;100.00;93360.78;5039170;28;20469;-92
2022/04/07 07:52:01;;;;;;;17.83;9.80;;;;;;;10.60;100.00;93363.16;5039459;28;20040;-91
2022/04/07 07:54:27;;;;;;;18.92;9.40;;;;;;;10.54;100.00;93361.69;5039594;28;20033;-92
2022/04/07 07:56:57;;;;;;;17.38;9.07;;;;;;;10.64;100.00;93363.34;5039128;28;20032;-92
2022/04/07 07:59:24;;;;;;;15.93;9.80;;;;;;;10.72;96.97;93368.69;5039497;28;20033;-90
2022/04/07 08:01:49;;;;;;;17.23;9.60;;;;;;;10.82;100.00;93374.78;5022682;28;20028;-90
2022/04/07 08:04:15;;;;;;;17.83;8.57;;;;;;;10.70;92.37;93362.16;5039089;28;20362;-92
2022/04/07 08:06:41;;;;;;;17.77;8.93;;;;;;;10.89;97.10;93360.19;5022483;28;20455;-92
2022/04/07 08:09:08;;;;;;;21.02;9.88;;;;;;;10.73;96.48;93366.81;5038902;28;20067;-91
2022/04/07 08:11:33;;;;;;;17.67;8.82;;;;;;;11.01;90.16;93367.59;5022797;28;20166;-91
2022/04/07 08:14:02;;;;;;;20.42;10.13;;;;;;;10.99;87.66;93366.31;5038998;28;20063;-90
2022/04/07 08:16:30;;;;;;;21.80;9.65;;;;;;;10.88;100.00;93363.91;5022118;28;20086;-92
2022/04/07 08:18:55;;;;;;;18.35;10.00;;;;;;;10.80;100.00;93361.97;5022888;28;20029;-91
2022/04/07 08:21:26;;;;;;;16.70;9.60;;;;;;;10.73;91.60;93354.50;5039210;28;20029;-91
2022/04/07 08:23:53;;;;;;;17.27;8.93;;;;;;;10.98;96.34;93365.56;5038891;28;20040;-90
2022/04/07 08:26:18;;;;;;;18.30;9.52;;;;;;;11.37;95.18;93367.88;5022418;28;20409;-91
2022/04/07 08:28:46;;;;;;;18.65;9.73;;;;;;;11.46;85.26;93371.34;5022504;28;20033;-92
2022/04/07 08:31:12;;;;;;;20.08;10.23;;;;;;;11.53;81.08;93360.44;5022521;28;20036;-91
2022/04/07 08:33:37;;;;;;;18.40;9.18;;;;;;;11.53;78.92;93349.94;5038813;28;20040;-92
2022/04/07 08:36:03;;;;;;;18.92;9.40;;;;;;;11.61;79.93;93362.34;5022430;28;20342;-91
2022/04/07 08:38:29;;;;;;;16.67;9.23;;;;;;;11.76;84.68;93360.44;5022516;28;20441;-92
2022/04/07 08:40:55;;;;;;;26.55;10.65;;;;;;;11.91;82.06;93360.09;5022573;28;20430;-91
2022/04/07 08:43:20;;;;;;;19.20;10.23;;;;;;;12.04;90.59;93363.72;5022285;28;20111;-91
2022/04/07 08:45:47;;;;;;;18.20;9.15;;;;;;;12.29;87.12;93356.28;5038630;28;20036;-91
2022/04/07 08:48:15;;;;;;;18.80;10.32;;;;;;;12.19;84.32;93349.44;5022432;28;20028;-92
2022/04/07 08:50:44;;;;;;;22.15;11.73;;;;;;;12.53;77.47;93360.38;5039281;28;20533;-91
2022/04/07 08:53:11;;;;;;;21.15;10.75;;;;;;;12.55;76.69;93366.91;5026006;28;20032;-92
2022/04/07 08:55:39;;;;;;;20.90;11.38;;;;;;;12.64;76.65;93364.28;5025776;28;20043;-90
2022/04/07 08:58:05;;;;;;;21.00;10.45;;;;;;;12.95;79.20;93365.31;5042580;28;20409;-91
2022/04/07 09:00:32;;;;;;;17.45;9.63;;;;;;;13.05;75.49;93364.25;5025809;28;20057;-91
2022/04/07 09:03:00;;;;;;;19.83;10.48;;;;;;;13.15;70.96;93362.09;5042363;28;20078;-91
2022/04/07 09:05:28;;;;;;;20.17;10.63;;;;;;;13.16;69.22;93365.50;5026117;28;20037;-92
2022/04/07 09:07:55;;;;;;;16.63;8.95;;;;;;;13.18;69.64;93362.56;5025905;28;20346;-91
2022/04/07 09:10:25;;;;;;;19.17;9.65;;;;;;;13.18;70.65;93365.19;5042002;28;20036;-92
2022/04/07 09:12:52;;;;;;;23.40;10.43;;;;;;;13.12;75.75;93367.19;5041960;28;20103;-90
2022/04/07 09:15:18;;;;;;;20.65;10.18;;;;;;;12.93;72.55;93359.59;5025941;28;20029;-91
2022/04/07 09:17:59;;;;;;;17.30;9.85;;;;;;;12.92;78.08;93361.44;5025796;28;20029;-92
2022/04/07 09:20:24;;;;;;;20.13;10.82;;;;;;;12.96;76.09;93357.09;5026064;28;20350;-91
2022/04/07 09:22:57;;;;;;;17.42;9.43;;;;;;;12.91;69.48;93361.72;5041630;28;20029;-92
2022/04/07 09:25:23;;;;;;;16.97;10.63;;;;;;;12.98;73.46;93351.56;5041637;28;20043;-92
2022/04/07 09:27:48;;;;;;;18.67;9.93;;;;;;;13.14;75.31;93355.28;5041749;28;20342;-92
2022/04/07 09:30:14;;;;;;;21.95;9.70;;;;;;;13.40;76.29;93354.53;5025288;28;20169;-92
2022/04/07 09:32:42;;;;;;;18.48;9.15;;;;;;;13.53;77.10;93354.72;5025252;28;20107;-91
2022/04/07 09:35:17;;;;;;;16.63;9.30;;;;;;;13.62;73.25;93357.34;5041552;28;20040;-91
2022/04/07 09:37:45;;;;;;;17.02;9.52;;;;;;;13.87;75.90;93358.41;5025451;28;20029;-91
2022/04/07 09:40:16;;;;;;;16.02;9.27;;;;;;;14.11;68.33;93370.28;5041875;28;20037;-91
2022/04/07 09:42:42;;;;;;;22.67;11.10;;;;;;;13.83;69.78;93360.09;5025026;28;20057;-92
2022/04/07 09:45:12;;;;;;;18.63;9.93;;;;;;;13.67;71.34;93363.22;5024961;28;20091;-91
2022/04/07 09:47:45;;;;;;;16.95;9.68;;;;;;;13.90;76.12;93367.53;5041612;28;20041;-93
2022/04/07 09:50:19;;;;;;;17.73;10.25;;;;;;;13.98;78.49;93364.88;5041462;28;20029;-91
2022/04/07 09:52:59;;;;;;;20.58;11.32;;;;;;;14.14;80.88;93361.75;5041348;28;20033;-92
2022/04/07 09:55:42;;;;;;;19.52;9.65;;;;;;;14.22;71.92;93360.97;5024830;28;20086;-92
2022/04/07 09:58:08;;;;;;;24.48;11.88;;;;;;;14.69;97.74;93367.28;5025561;28;20036;-91
2022/04/07 10:00:35;;;;;;;22.98;12.90;;;;;;;14.59;69.14;93367.63;5024786;28;20103;-91
2022/04/07 10:03:02;;;;;;;21.90;11.93;;;;;;;14.59;79.23;93367.63;5023897;28;20392;-92
2022/04/07 10:05:28;;;;;;;24.08;12.38;;;;;;;14.62;80.28;93359.88;5024637;28;20040;-91
2022/04/07 10:07:57;;;;;;;22.38;11.50;;;;;;;14.53;69.57;93359.13;5024368;28;20083;-91
2022/04/07 10:10:22;;;;;;;22.42;12.02;;;;;;;14.53;73.16;93353.88;5024885;28;20038;-90
2022/04/07 10:12:48;;;;;;;25.30;12.50;;;;;;;14.46;68.60;93345.69;5041252;28;20025;-92
2022/04/07 10:15:17;;;;;;;20.30;11.73;;;;;;;14.61;76.97;93341.75;5040967;28;20048;-91
2022/04/07 10:17:43;;;;;;;27.95;14.00;;;;;;;14.60;80.47;93337.56;5024274;28;20082;-91
2022/04/07 10:20:11;;;;;;;23.67;12.57;;;;;;;14.78;85.02;93328.53;5024195;28;20028;-92
2022/04/07 10:22:43;;;;;;;19.33;11.00;;;;;;;14.81;73.03;93335.78;5040536;28;20158;-91
2022/04/07 10:25:08;;;;;;;19.70;11.70;;;;;;;14.59;69.30;93328.09;5040858;28;20040;-91
2022/04/07 10:27:47;;;;;;;22.17;12.00;;;;;;;14.77;72.37;93329.59;5040570;28;20025;-91
2022/04/07 10:30:15;;;;;;;20.08;10.70;;;;;;;14.69;74.59;93319.84;5024550;28;20564;-92
2022/04/07 10:32:42;;;;;;;19.90;10.13;;;;;;;14.91;72.50;93320.66;5024333;28;20025;-92
2022/04/07 10:35:09;;;;;;;19.15;11.27;;;;;;;14.96;69.40;93317.88;5024064;28;20025;-92
2022/04/07 10:37:42;;;;;;;17.75;10.65;;;;;;;15.07;75.41;93321.66;5023919;28;20024;-90
2022/04/07 10:40:39;;;;;;;19.90;10.65;;;;;;;14.97;66.61;93312.25;5037103;28;20331;-90
2022/04/07 10:43:10;;;;;;;23.60;10.80;;;;;;;14.86;66.07;93318.22;5057161;28;20029;-91
2022/04/07 10:45:47;;;;;;;18.60;10.85;;;;;;;15.13;73.19;93322.22;5020482;28;20077;-91
2022/04/07 10:48:26;;;;;;;23.13;11.18;;;;;;;15.13;66.76;93325.66;5020498;28;20029;-92
2022/04/07 10:51:02;;;;;;;20.98;10.93;;;;;;;15.14;70.61;93334.34;5020471;28;20037;-91
2022/04/07 10:53:52;;;;;;;16.73;10.35;;;;;;;15.01;68.82;93336.13;5037889;28;20030;-91
2022/04/07 10:56:34;;;;;;;20.85;10.60;;;;;;;15.15;71.55;93335.91;5036904;28;20033;-92
2022/04/07 10:59:19;;;;;;;17.70;9.98;;;;;;;15.22;67.90;93327.47;5021477;28;20033;-90
2022/04/07 11:01:47;;;;;;;18.05;9.85;;;;;;;15.50;64.68;93340.91;5020302;28;20040;-91
2022/04/07 11:04:21;;;;;;;18.17;9.57;;;;;;;15.63;71.30;93330.41;5020196;28;20065;-92
2022/04/07 11:07:02;;;;;;;12.45;7.70;;;;;;;16.10;68.40;93326.72;5037545;28;20037;-92
2022/04/07 11:09:53;;;;;;;13.73;8.25;;;;;;;16.00;62.78;93327.13;5020153;28;20040;-91
2022/04/07 11:12:39;;;;;;;14.02;7.63;;;;;;;16.00;62.56;93320.00;5038018;28;20037;-91
2022/04/07 11:15:04;;;;;;;19.95;9.13;;;;;;;16.02;62.30;93319.63;5022761;28;20033;-92
2022/04/07 11:17:38;;;;;;;15.13;7.93;;;;;;;15.90;62.69;93318.50;5057225;28;20033;-91
2022/04/07 11:20:22;;;;;;;18.08;7.75;;;;;;;15.92;62.91;93318.97;5039446;28;20033;-91
2022/04/07 11:23:08;;;;;;;14.05;7.47;;;;;;;16.03;62.32;93318.53;5039568;28;20083;-90
2022/04/07 11:25:39;;;;;;;13.82;7.13;;;;;;;16.14;60.95;93317.03;5024159;28;20040;-91
2022/04/07 11:28:13;;;;;;;10.57;7.00;;;;;;;16.22;60.04;93312.75;5023111;28;20342;-92